Airfield :
LOGIN :

Register | Disclaimer

   EN    FR    IT 

 










Legend :    VFR   Marginal VFR   IFR   Intensive IFR   Very Intensive IFR
Visi :
Ceiling :
>= 8 km
>= 3000ft
5 to 8 km
1000 to 3000 ft
1500m to 5 km
500 to 1000 ft
800 to 1500m
200 to 500 ft
< 800m
< 200 ft
Symbols :   Thunderstorms  Fog  Heavy snow  Heavy precipitations  Wind > 20 kt
SIGMETs :     Misc.  Thunderstorms  Icing  Turbulence  Mountain Waves  Volcanic Ashes






- Airport Elevation : 348 ft
- IATA code : LDV


LFRJ - Landivisiau

CURRENT METAR :
  • 152100Z AUTO 20017KT 9999 -RA OVC007/// ///TCU 14/13 Q1004 BECMG 22016G32KT RA BKN005

EXPIRED METARs :
  • 152030Z AUTO 19014KT 9999 -RA BKN007/// BKN011/// OVC016/// ///TCU 13/13 Q1005 BECMG 22016G32KT RA BKN005
  • 152000Z AUTO 18013KT 9999 -RA BKN008/// BKN013/// OVC019/// ///TCU 13/12 Q1005 BECMG BKN017 BKN028
  • 151930Z AUTO 19012KT 6000 -RA SCT010/// SCT016/// BKN024/// ///TCU 13/12 Q1006 BECMG BKN017 BKN028
  • 151900Z AUTO 20015KT 9999 -RA SCT012/// BKN023/// BKN035/// ///TCU 13/12 Q1006 TEMPO 4800 RADZ BECMG 18011G25KT BKN017 BKN028
  • 151830Z AUTO 20012KT 9999 -RA BKN013 BKN036 BKN056 14/13 Q1006 TEMPO 4800 RADZ BECMG BKN017 BKN028

TAF TAF LFRJ
Valid from the 15 at 21:00 until the 16 at 06:00 UTC


152000Z 1521/1606 17011G22KT 6000 RA BKN008 BKN012 BKN018
BECMG 1522/1524 22016G32KT BKN005
TEMPO 1601/1603 4000 DZ OVC003
BECMG 1603/1605 21005KT 9999 NSW BKN027



MET'MAP, your aeronautical weather chart ! - Copyright ORBIFLY December 2007 - Disclaimer

ORBIFLY MET'MAP TEAM :

Programming & Development : Alexandra Zaïnal
Concept & Development : Baudouin d'Aumeries
Co-Development & Prog : Marc-Olivier Méhu
Technical & hardware support : Manuel Goepfert

Contact : metmap@orbifly.com




SOURCES & CREDITS :

   NOAA